createdAt,value
2019-03-06T00:02:17.391Z,97463.19
2019-03-06T00:04:47.760Z,97468.19
2019-03-06T00:07:18.091Z,97461.63
2019-03-06T00:09:48.322Z,97459.09
2019-03-06T00:12:18.715Z,97453.01
2019-03-06T00:14:49.045Z,97448.82
2019-03-06T00:17:19.478Z,97448.11
2019-03-06T00:19:49.993Z,97453.59
2019-03-06T00:22:20.359Z,97457.91
2019-03-06T00:24:58.923Z,97457.03
2019-03-06T00:27:41.694Z,97450.38
2019-03-06T00:30:12.270Z,97448.69
2019-03-06T00:32:43.003Z,97441.48
2019-03-06T00:35:18.608Z,97438.48
2019-03-06T00:37:49.076Z,97441.12
2019-03-06T00:40:44.278Z,97438.38
2019-03-06T00:43:14.626Z,97442.47
2019-03-06T00:45:45.121Z,97440.74
2019-03-06T00:48:15.412Z,97444.97
2019-03-06T00:50:45.981Z,97443.89
2019-03-06T00:53:16.196Z,97446.19
2019-03-06T00:55:46.650Z,97443.95
2019-03-06T00:58:16.998Z,97442.94
2019-03-06T01:00:47.368Z,97440.67
2019-03-06T01:03:17.767Z,97445.52
2019-03-06T01:05:48.379Z,97434.77
2019-03-06T01:08:18.850Z,97431.83
2019-03-06T01:10:49.542Z,97425.73
2019-03-06T01:13:20.267Z,97416.75
2019-03-06T01:15:51.049Z,97411.25
2019-03-06T01:18:21.389Z,97403.73
2019-03-06T01:20:51.659Z,97409.56
2019-03-06T01:23:22.007Z,97411.48
2019-03-06T01:25:52.391Z,97412.77
2019-03-06T01:28:22.705Z,97412.09
2019-03-06T01:30:53.074Z,97411.22
2019-03-06T01:33:32.109Z,97404.70
2019-03-06T01:36:11.355Z,97399.26
2019-03-06T01:39:00.515Z,97395.91
2019-03-06T01:41:49.142Z,97394.39
2019-03-06T01:44:23.504Z,97394.73
2019-03-06T01:46:53.781Z,97392.23
2019-03-06T01:49:24.323Z,97388.85
2019-03-06T01:51:54.659Z,97386.62
2019-03-06T01:54:24.941Z,97384.70
2019-03-06T01:56:55.293Z,97381.72
2019-03-06T01:59:25.543Z,97376.42
2019-03-06T02:01:55.903Z,97372.67
2019-03-06T02:04:26.234Z,97368.34
2019-03-06T02:06:56.566Z,97357.70
2019-03-06T02:09:29.695Z,97355.06
2019-03-06T02:12:00.309Z,97352.64
2019-03-06T02:14:30.599Z,97353.11
2019-03-06T02:17:01.197Z,97343.59
2019-03-06T02:19:31.561Z,97338.59
2019-03-06T02:22:01.989Z,97334.61
2019-03-06T02:24:32.494Z,97340.69
2019-03-06T02:27:02.878Z,97337.84
2019-03-06T02:29:33.107Z,97331.16
2019-03-06T02:32:03.494Z,97329.70
2019-03-06T02:34:34.018Z,97331.27
2019-03-06T02:37:04.345Z,97327.34
2019-03-06T02:39:34.750Z,97329.03
2019-03-06T02:42:05.060Z,97311.95
2019-03-06T02:44:35.280Z,97297.03
2019-03-06T02:47:05.732Z,97300.23
2019-03-06T02:49:36.009Z,97301.69
2019-03-06T02:52:25.352Z,97300.44
2019-03-06T02:54:55.785Z,97297.64
2019-03-06T02:57:26.021Z,97296.76
2019-03-06T03:00:01.367Z,97293.75
2019-03-06T03:02:53.528Z,97298.34
2019-03-06T03:05:42.832Z,97300.80
2019-03-06T03:08:13.225Z,97303.03
2019-03-06T03:10:43.516Z,97300.23
2019-03-06T03:13:13.832Z,97296.28
2019-03-06T03:15:44.121Z,97301.17
2019-03-06T03:18:14.520Z,97290.75
2019-03-06T03:20:44.923Z,97288.19
2019-03-06T03:23:15.383Z,97282.98
2019-03-06T03:25:45.751Z,97279.20
2019-03-06T03:28:16.079Z,97276.58
2019-03-06T03:30:46.326Z,97268.44
2019-03-06T03:33:16.660Z,97269.92
2019-03-06T03:35:47.073Z,97265.50
2019-03-06T03:38:17.429Z,97265.98
2019-03-06T03:40:47.733Z,97270.16
2019-03-06T03:43:17.981Z,97274.95
2019-03-06T03:45:48.301Z,97267.09
2019-03-06T03:48:18.716Z,97274.38
2019-03-06T03:50:48.951Z,97271.00
2019-03-06T03:53:19.385Z,97266.75
2019-03-06T03:55:49.632Z,97277.92
2019-03-06T03:58:20.088Z,97273.23
2019-03-06T04:00:50.559Z,97274.98
2019-03-06T04:03:20.996Z,97267.86
2019-03-06T04:05:51.338Z,97266.27
2019-03-06T04:08:21.811Z,97267.97
2019-03-06T04:10:52.374Z,97265.27
2019-03-06T04:13:22.743Z,97267.30
2019-03-06T04:15:53.086Z,97271.65
2019-03-06T04:18:23.350Z,97271.14
2019-03-06T04:20:53.772Z,97271.09
2019-03-06T04:23:24.028Z,97276.80
2019-03-06T04:25:54.481Z,97272.55
2019-03-06T04:28:24.792Z,97271.23
2019-03-06T04:30:55.033Z,97260.53
2019-03-06T04:33:25.175Z,97262.16
2019-03-06T04:35:55.484Z,97267.55
2019-03-06T04:38:25.656Z,97281.41
2019-03-06T04:40:55.908Z,97269.75
2019-03-06T04:43:26.231Z,97279.64
2019-03-06T04:45:56.866Z,97284.22
2019-03-06T04:48:26.994Z,97282.73
2019-03-06T04:50:57.305Z,97283.23
2019-03-06T04:53:27.608Z,97276.70
2019-03-06T04:55:57.947Z,97267.19
2019-03-06T04:58:28.086Z,97264.52
2019-03-06T05:00:58.415Z,97262.07
2019-03-06T05:03:28.602Z,97258.80
2019-03-06T05:05:58.892Z,97243.91
2019-03-06T05:08:29.055Z,97239.75
2019-03-06T05:10:59.361Z,97238.47
2019-03-06T05:13:29.547Z,97239.16
2019-03-06T05:15:59.929Z,97235.64
2019-03-06T05:18:34.602Z,97225.72
2019-03-06T05:21:04.984Z,97221.22
2019-03-06T05:23:35.221Z,97217.78
2019-03-06T05:26:05.544Z,97223.58
2019-03-06T05:28:35.763Z,97225.98
2019-03-06T05:31:06.078Z,97221.70
2019-03-06T05:33:36.499Z,97217.57
2019-03-06T05:37:12.272Z,97212.63
2019-03-06T05:39:42.467Z,97208.98
2019-03-06T05:42:13.787Z,97197.98
2019-03-06T05:44:43.987Z,97201.35
2019-03-06T05:47:14.306Z,97200.61
2019-03-06T05:49:44.707Z,97187.15
2019-03-06T05:52:15.198Z,97175.92
2019-03-06T05:54:45.431Z,97165.32
2019-03-06T05:57:15.766Z,97175.89
2019-03-06T05:59:46.024Z,97174.39
2019-03-06T06:02:16.294Z,97176.49
2019-03-06T06:04:46.688Z,97177.02
2019-03-06T06:07:16.886Z,97179.81
2019-03-06T06:09:47.212Z,97180.53
2019-03-06T06:12:17.467Z,97179.73
2019-03-06T06:14:47.793Z,97183.51
2019-03-06T06:17:18.150Z,97190.84
2019-03-06T06:19:48.344Z,97179.22
2019-03-06T06:22:32.430Z,97175.34
2019-03-06T06:25:02.815Z,97170.89
2019-03-06T06:27:33.241Z,97171.20
2019-03-06T06:30:03.670Z,97161.69
2019-03-06T06:32:34.051Z,97144.77
2019-03-06T06:35:04.698Z,97137.48
2019-03-06T06:37:35.046Z,97142.87
2019-03-06T06:40:05.736Z,97147.93
2019-03-06T06:42:36.140Z,97148.00
2019-03-06T06:45:07.448Z,97145.53
2019-03-06T06:47:39.280Z,97142.19
2019-03-06T06:50:10.161Z,97146.39
2019-03-06T06:53:34.504Z,97148.79
2019-03-06T06:56:53.923Z,97141.70
2019-03-06T07:00:13.373Z,97136.31
2019-03-06T07:03:59.767Z,97127.62
2019-03-06T07:06:48.289Z,97126.38
2019-03-06T07:09:42.604Z,97116.56
2019-03-06T07:12:43.831Z,97112.08
2019-03-06T07:15:48.509Z,97107.92
2019-03-06T07:18:33.071Z,97102.34
2019-03-06T07:21:09.069Z,97106.65
2019-03-06T07:24:01.216Z,97111.84
2019-03-06T07:27:02.673Z,97110.74
2019-03-06T07:29:42.916Z,97114.77
2019-03-06T07:32:50.863Z,97116.02
2019-03-06T07:36:21.396Z,97107.55
2019-03-06T07:38:57.051Z,97103.78
2019-03-06T07:41:50.439Z,97102.47
2019-03-06T07:44:38.292Z,97103.93
2019-03-06T07:47:30.717Z,97102.70
2019-03-06T07:50:26.025Z,97094.32
2019-03-06T07:53:55.610Z,97093.02
2019-03-06T07:56:44.851Z,97088.80
2019-03-06T07:59:16.077Z,97090.00
2019-03-06T08:02:15.140Z,97087.50
2019-03-06T08:04:53.674Z,97085.98
2019-03-06T08:07:24.035Z,97092.03
2019-03-06T08:09:54.448Z,97090.98
2019-03-06T08:12:39.709Z,97085.03
2019-03-06T08:15:24.762Z,97081.61
2019-03-06T08:18:07.211Z,97085.47
2019-03-06T08:20:50.479Z,97082.45
2019-03-06T08:23:39.415Z,97093.83
2019-03-06T08:26:09.814Z,97097.38
2019-03-06T08:28:40.133Z,97081.13
2019-03-06T08:31:38.860Z,97070.00
2019-03-06T08:34:09.339Z,97069.81
2019-03-06T08:36:39.738Z,97079.43
2019-03-06T08:39:20.558Z,97074.55
2019-03-06T08:41:51.041Z,97075.86
2019-03-06T08:44:21.471Z,97066.69
2019-03-06T08:47:09.369Z,97072.70
2019-03-06T08:49:52.503Z,97079.30
2019-03-06T08:52:40.452Z,97072.42
2019-03-06T08:55:28.988Z,97073.69
2019-03-06T08:58:18.422Z,97071.95
2019-03-06T09:01:07.079Z,97071.72
2019-03-06T09:03:47.814Z,97066.05
2019-03-06T09:06:43.110Z,97058.11
2019-03-06T09:09:31.511Z,97055.59
2019-03-06T09:12:18.350Z,97053.42
2019-03-06T09:15:07.787Z,97038.16
2019-03-06T09:17:55.520Z,97038.78
2019-03-06T09:20:50.803Z,97039.20
2019-03-06T09:23:45.860Z,97042.17
2019-03-06T09:26:47.231Z,97033.41
2019-03-06T09:29:45.189Z,97030.41
2019-03-06T09:32:34.341Z,97018.97
2019-03-06T09:35:38.981Z,97006.13
2019-03-06T09:38:37.290Z,96996.98
2019-03-06T09:41:29.539Z,96987.12
2019-03-06T09:44:17.558Z,96977.02
2019-03-06T09:47:14.001Z,96967.70
2019-03-06T09:50:12.324Z,96961.06
2019-03-06T09:53:04.234Z,96951.17
2019-03-06T09:55:53.574Z,96947.43
2019-03-06T09:58:30.399Z,96942.91
2019-03-06T10:01:22.581Z,96947.45
2019-03-06T10:04:01.075Z,96937.58
2019-03-06T10:06:52.023Z,96940.23
2019-03-06T10:09:36.910Z,96938.11
2019-03-06T10:12:22.550Z,96935.44
2019-03-06T10:15:16.610Z,96934.00
2019-03-06T10:18:00.230Z,96918.59
2019-03-06T10:20:30.947Z,96916.52
2019-03-06T10:23:01.361Z,96912.80
2019-03-06T10:25:32.082Z,96915.42
2019-03-06T10:28:06.370Z,96912.77
2019-03-06T10:30:35.246Z,96907.94
2019-03-06T10:33:05.642Z,96901.52
2019-03-06T10:35:37.278Z,96899.40
2019-03-06T19:18:45.495Z,96276.43
2019-03-06T19:21:16.120Z,96286.06
2019-03-06T19:23:48.232Z,96277.97
2019-03-06T19:26:18.836Z,96278.34
2019-03-06T19:28:49.449Z,96280.95
2019-03-06T19:31:20.000Z,96284.47
2019-03-06T19:33:50.554Z,96279.55
2019-03-06T19:36:23.756Z,96272.66
2019-03-06T19:38:54.074Z,96270.36
2019-03-06T19:41:24.553Z,96267.55
2019-03-06T19:43:58.857Z,96266.03
2019-03-06T19:46:29.466Z,96269.47
2019-03-06T19:49:00.015Z,96256.08
2019-03-06T19:51:30.823Z,96246.34
2019-03-06T19:54:01.572Z,96247.16
2019-03-06T19:56:32.414Z,96240.56
2019-03-06T19:59:02.880Z,96233.78
2019-03-06T20:01:33.524Z,96249.34
2019-03-06T20:04:04.155Z,96240.74
2019-03-06T20:06:34.613Z,96229.88
2019-03-06T20:09:21.701Z,96222.13
2019-03-06T20:11:52.142Z,96231.02
2019-03-06T20:14:22.553Z,96220.84
2019-03-06T20:16:53.036Z,96216.90
2019-03-06T20:19:24.100Z,96219.03
2019-03-06T20:21:54.884Z,96215.00
2019-03-06T20:24:25.400Z,96214.13
2019-03-06T20:26:56.117Z,96209.72
2019-03-06T20:29:26.891Z,96210.61
2019-03-06T20:31:57.343Z,96208.10
2019-03-06T20:34:27.750Z,96209.06
2019-03-06T20:36:58.232Z,96205.66
2019-03-06T20:39:28.713Z,96207.48
2019-03-06T20:41:59.146Z,96222.48
2019-03-06T20:44:29.710Z,96205.01
2019-03-06T20:47:00.147Z,96206.28
2019-03-06T20:49:30.700Z,96191.53
2019-03-06T20:52:01.114Z,96209.61
2019-03-06T20:54:31.600Z,96195.28
2019-03-06T20:57:02.111Z,96194.54
2019-03-06T20:59:32.423Z,96195.73
2019-03-06T21:03:37.407Z,96191.70
2019-03-06T21:06:07.768Z,96195.44
2019-03-06T21:08:38.244Z,96192.02
2019-03-06T21:11:08.674Z,96202.70
2019-03-06T21:13:39.140Z,96205.50
2019-03-06T21:16:09.645Z,96212.30
2019-03-06T21:18:40.221Z,96212.69
2019-03-06T21:21:10.658Z,96215.12
2019-03-06T21:23:41.234Z,96213.09
2019-03-06T21:26:13.746Z,96209.89
2019-03-06T21:28:44.299Z,96208.13
2019-03-06T21:31:14.741Z,96209.38
2019-03-06T21:33:45.342Z,96206.84
2019-03-06T21:36:15.684Z,96206.56
2019-03-06T21:38:46.007Z,96186.80
2019-03-06T21:41:16.376Z,96182.11
2019-03-06T21:43:46.672Z,96189.00
2019-03-06T21:46:17.298Z,96188.05
2019-03-06T21:48:47.756Z,96176.23
2019-03-06T21:51:18.154Z,96170.86
2019-03-06T21:53:48.726Z,96181.30
2019-03-06T21:56:19.086Z,96171.82
2019-03-06T21:58:49.594Z,96158.65
2019-03-06T22:01:19.896Z,96143.77
2019-03-06T22:03:50.400Z,96150.08
2019-03-06T22:06:20.833Z,96155.73
2019-03-06T22:08:51.315Z,96148.43
2019-03-06T22:11:21.733Z,96152.03
2019-03-06T22:13:52.468Z,96150.31
2019-03-06T22:16:22.928Z,96143.05
2019-03-06T22:18:53.368Z,96138.63
2019-03-06T22:21:23.706Z,96146.66
2019-03-06T22:23:54.102Z,96146.47
2019-03-06T22:26:24.725Z,96143.64
2019-03-06T22:28:55.082Z,96154.77
2019-03-06T22:31:25.378Z,96157.92
2019-03-06T22:33:55.814Z,96156.39
2019-03-06T22:36:26.251Z,96146.26
2019-03-06T22:38:56.588Z,96146.05
2019-03-06T22:41:27.499Z,96153.28
2019-03-06T22:43:57.950Z,96168.38
2019-03-06T22:46:28.335Z,96172.23
2019-03-06T22:48:58.667Z,96165.77
2019-03-06T22:51:29.184Z,96165.80
2019-03-06T22:53:59.738Z,96163.23
2019-03-06T22:56:30.387Z,96152.59
2019-03-06T22:59:00.707Z,96160.11
2019-03-06T23:01:35.296Z,96147.50
2019-03-06T23:04:06.337Z,96141.16
2019-03-06T23:06:37.027Z,96131.75
2019-03-06T23:09:11.056Z,96127.69
2019-03-06T23:11:42.893Z,96126.39
2019-03-06T23:14:13.192Z,96114.05
2019-03-06T23:16:43.619Z,96119.13
2019-03-06T23:19:14.000Z,96120.16
2019-03-06T23:21:44.380Z,96115.55
2019-03-06T23:24:14.797Z,96107.23
2019-03-06T23:26:45.153Z,96097.55
2019-03-06T23:29:15.466Z,96093.39
2019-03-06T23:31:45.875Z,96089.97
2019-03-06T23:34:16.141Z,96091.37
2019-03-06T23:36:46.552Z,96094.17
2019-03-06T23:39:16.960Z,96089.22
2019-03-06T23:41:47.329Z,96098.58
2019-03-06T23:44:17.730Z,96102.56
2019-03-06T23:46:48.058Z,96100.20
2019-03-06T23:49:18.319Z,96093.39
2019-03-06T23:52:13.307Z,96094.69
2019-03-06T23:54:43.727Z,96085.53
2019-03-06T23:57:14.174Z,96096.12
2019-03-06T23:59:44.600Z,96113.14
